Time;durP1;ratioP1;P1;durP2;ratioP2;P2;SDS_P1;SDS_P2;PMS_P1;PMS_P2;Temp;Humidity;BMP_temperature;BMP_pressure;BME280_temperature;BME280_humidity;BME280_pressure;Samples;Min_cycle;Max_cycle;Signal;HPM_P1;HPM_P2
2022/07/19 00:04:55;;;;;;;9.93;1.00;;;20.20;82.00;;;;;;10302959;28;20046;-61
2022/07/19 00:09:57;;;;;;;12.65;0.90;;;20.00;82.40;;;;;;10303374;28;20413;-61
2022/07/19 00:14:59;;;;;;;11.88;0.73;;;19.90;83.00;;;;;;10285025;28;20453;-61
2022/07/19 00:20:00;;;;;;;10.02;1.23;;;19.90;83.30;;;;;;10290481;28;20058;-61
2022/07/19 00:25:02;;;;;;;7.30;0.93;;;19.80;84.60;;;;;;10299183;28;20054;-61
2022/07/19 00:30:06;;;;;;;10.45;1.00;;;19.60;85.00;;;;;;10269706;28;20097;-61
2022/07/19 00:35:08;;;;;;;11.32;1.63;;;19.50;84.80;;;;;;10290064;28;20062;-62
2022/07/19 00:40:10;;;;;;;2.17;0.70;;;19.30;86.00;;;;;;10307588;28;20050;-61
2022/07/19 00:45:13;;;;;;;14.45;0.80;;;19.30;87.30;;;;;;10303281;28;20444;-61
2022/07/19 00:50:18;;;;;;;5.05;0.68;;;19.30;88.10;;;;;;10296649;28;20758;-61
2022/07/19 00:55:21;;;;;;;3.45;0.60;;;19.20;88.50;;;;;;10312254;28;20120;-58
2022/07/19 01:00:24;;;;;;;7.97;0.85;;;19.10;88.80;;;;;;10309622;28;20464;-59
2022/07/19 01:05:26;;;;;;;18.25;1.13;;;19.10;89.90;;;;;;10281909;28;20046;-60
2022/07/19 01:10:28;;;;;;;8.57;0.93;;;19.10;90.60;;;;;;10279668;28;20126;-60
2022/07/19 01:15:29;;;;;;;8.57;1.58;;;19.00;91.10;;;;;;10290512;28;20049;-59
2022/07/19 01:20:32;;;;;;;10.43;0.80;;;18.90;91.40;;;;;;10284215;28;20104;-60
2022/07/19 01:25:36;;;;;;;6.07;0.90;;;18.70;91.70;;;;;;10294662;28;20049;-59
2022/07/19 01:30:37;;;;;;;8.90;0.60;;;18.60;92.50;;;;;;10302106;28;20054;-59
2022/07/19 01:35:39;;;;;;;8.43;0.80;;;18.40;91.90;;;;;;10304478;28;20054;-61
2022/07/19 01:40:41;;;;;;;3.40;0.65;;;18.40;92.30;;;;;;10283245;28;20106;-62
2022/07/19 01:45:43;;;;;;;8.77;0.80;;;18.40;92.80;;;;;;10293928;28;20108;-59
2022/07/19 01:50:45;;;;;;;5.32;0.52;;;18.30;93.60;;;;;;10308593;28;20717;-61
2022/07/19 01:55:46;;;;;;;4.05;0.82;;;18.30;94.20;;;;;;10301987;28;20058;-61
2022/07/19 02:00:48;;;;;;;5.68;0.60;;;18.20;94.00;;;;;;10293304;28;20455;-60
2022/07/19 02:05:50;;;;;;;1.25;0.50;;;18.10;94.20;;;;;;10305946;28;20640;-61
2022/07/19 02:10:52;;;;;;;3.63;0.52;;;18.00;94.20;;;;;;10291725;28;20086;-59
2022/07/19 02:15:53;;;;;;;13.15;0.60;;;17.90;94.60;;;;;;10285757;28;20054;-60
2022/07/19 02:20:55;;;;;;;3.13;0.40;;;17.80;94.70;;;;;;10291674;28;20046;-61
2022/07/19 02:25:56;;;;;;;4.35;0.50;;;17.70;95.40;;;;;;10295638;28;20058;-60
2022/07/19 02:30:58;;;;;;;5.80;0.75;;;17.60;95.40;;;;;;10282055;28;20058;-61
2022/07/19 02:36:00;;;;;;;5.28;0.95;;;17.60;95.90;;;;;;10295894;28;20053;-60
2022/07/19 02:41:02;;;;;;;5.63;0.70;;;17.60;95.90;;;;;;10300408;28;20050;-60
2022/07/19 02:46:04;;;;;;;4.85;1.27;;;17.60;96.60;;;;;;10295180;28;20054;-60
2022/07/19 02:51:11;;;;;;;8.52;0.73;;;17.50;97.20;;;;;;10288037;28;20129;-60
2022/07/19 02:56:13;;;;;;;1.33;0.50;;;17.40;97.20;;;;;;10276090;28;20078;-60
2022/07/19 03:01:15;;;;;;;1.77;0.73;;;17.30;97.60;;;;;;10279828;28;20195;-60
2022/07/19 03:06:18;;;;;;;1.05;0.60;;;17.30;98.20;;;;;;10293075;28;20050;-61
2022/07/19 03:11:20;;;;;;;1.42;0.98;;;17.30;98.50;;;;;;10284748;28;20051;-61
2022/07/19 03:16:22;;;;;;;6.43;0.68;;;17.30;98.70;;;;;;10316175;28;20050;-61
2022/07/19 03:21:24;;;;;;;5.65;0.80;;;17.30;99.00;;;;;;10312000;28;20080;-60
2022/07/19 03:26:25;;;;;;;1.25;0.60;;;17.30;98.70;;;;;;10314483;28;20149;-61
2022/07/19 03:31:28;;;;;;;3.67;0.70;;;17.20;98.50;;;;;;10289024;28;20065;-61
2022/07/19 03:36:29;;;;;;;6.32;0.60;;;17.20;98.40;;;;;;10288086;28;20506;-65
2022/07/19 03:41:31;;;;;;;4.15;0.60;;;17.20;98.50;;;;;;10291167;28;20058;-65
2022/07/19 03:46:36;;;;;;;1.92;0.65;;;17.10;98.60;;;;;;10305903;28;20042;-65
2022/07/19 03:51:37;;;;;;;11.23;1.58;;;17.10;99.10;;;;;;10303091;28;20153;-65
2022/07/19 03:56:39;;;;;;;9.32;0.80;;;17.10;99.70;;;;;;10300233;28;20116;-65
2022/07/19 04:01:41;;;;;;;7.47;0.77;;;17.10;99.50;;;;;;10298711;28;20057;-66
2022/07/19 04:06:44;;;;;;;5.45;0.77;;;17.20;99.60;;;;;;10299998;28;20485;-66
2022/07/19 04:11:45;;;;;;;3.83;0.60;;;17.10;99.50;;;;;;10275547;28;20061;-66
2022/07/19 04:16:47;;;;;;;0.88;0.60;;;17.10;99.60;;;;;;10265933;28;20066;-66
2022/07/19 04:21:49;;;;;;;4.20;0.80;;;17.10;99.90;;;;;;10274226;28;20055;-66
2022/07/19 04:26:50;;;;;;;1.20;0.70;;;17.20;99.80;;;;;;10256482;28;20473;-66
2022/07/19 04:31:52;;;;;;;4.90;0.77;;;17.20;99.90;;;;;;10265109;28;20073;-66
2022/07/19 04:36:54;;;;;;;1.50;0.63;;;17.20;99.90;;;;;;10265986;28;20486;-66
2022/07/19 04:41:56;;;;;;;2.58;0.82;;;17.20;99.90;;;;;;10260913;28;20110;-66
2022/07/19 04:46:57;;;;;;;5.40;0.70;;;17.20;99.90;;;;;;10266959;28;20058;-66
2022/07/19 04:51:59;;;;;;;1.60;0.50;;;17.20;99.90;;;;;;10263065;28;20054;-65
2022/07/19 04:57:01;;;;;;;4.85;0.85;;;17.20;99.90;;;;;;10266761;28;20047;-62
2022/07/19 05:02:03;;;;;;;6.05;0.70;;;17.20;99.90;;;;;;10252741;28;20038;-62
2022/07/19 05:07:05;;;;;;;4.45;0.43;;;17.30;99.90;;;;;;10268202;28;20054;-62
2022/07/19 05:12:07;;;;;;;6.25;1.00;;;17.40;99.90;;;;;;10292118;28;20057;-62
2022/07/19 05:17:09;;;;;;;2.20;0.80;;;17.50;99.90;;;;;;10300078;28;20046;-61
2022/07/19 05:22:10;;;;;;;2.47;0.80;;;17.70;99.90;;;;;;10305658;28;20042;-60
2022/07/19 05:27:12;;;;;;;3.92;0.90;;;17.80;99.90;;;;;;10305587;28;20050;-61
2022/07/19 05:32:14;;;;;;;5.55;0.90;;;18.00;99.90;;;;;;10308169;28;20051;-61
2022/07/19 05:37:15;;;;;;;1.65;0.70;;;18.10;99.90;;;;;;10294758;28;20066;-65
2022/07/19 05:42:17;;;;;;;6.88;0.65;;;18.30;99.90;;;;;;10291663;28;20520;-63
2022/07/19 05:47:19;;;;;;;1.90;0.50;;;18.40;99.90;;;;;;10287987;28;20379;-64
2022/07/19 05:52:21;;;;;;;4.68;0.68;;;18.50;99.90;;;;;;10301564;28;20046;-63
2022/07/19 05:57:27;;;;;;;7.40;0.60;;;18.80;99.90;;;;;;10307762;28;20755;-63
2022/07/19 06:02:28;;;;;;;4.43;0.70;;;19.00;99.90;;;;;;10299671;28;20047;-63
2022/07/19 06:07:30;;;;;;;1.23;0.70;;;19.20;99.90;;;;;;10313250;28;20046;-63
2022/07/19 06:12:32;;;;;;;1.33;0.55;;;19.40;99.60;;;;;;10287580;28;20051;-63
2022/07/19 06:17:33;;;;;;;3.15;0.60;;;19.60;98.90;;;;;;10281170;28;20067;-65
2022/07/19 06:22:35;;;;;;;2.33;0.60;;;19.90;99.10;;;;;;10297077;28;20050;-66
2022/07/19 06:27:37;;;;;;;2.83;0.60;;;20.20;98.30;;;;;;10301334;28;20050;-67
2022/07/19 06:32:38;;;;;;;2.55;0.70;;;20.40;97.50;;;;;;10285798;28;20051;-67
2022/07/19 06:37:40;;;;;;;2.40;0.73;;;20.70;96.70;;;;;;10292433;28;20057;-66
2022/07/19 06:42:42;;;;;;;3.20;1.52;;;21.00;96.10;;;;;;10309836;28;20054;-66
2022/07/19 06:47:44;;;;;;;6.57;1.33;;;21.20;95.10;;;;;;10305202;28;20047;-67
2022/07/19 06:52:46;;;;;;;1.50;0.60;;;21.50;94.30;;;;;;10297369;28;20113;-67
2022/07/19 06:57:48;;;;;;;3.03;0.50;;;21.70;93.10;;;;;;10303355;28;20061;-67
2022/07/19 07:02:50;;;;;;;3.63;0.50;;;22.00;92.20;;;;;;10298178;28;20536;-68
2022/07/19 07:07:53;;;;;;;3.42;0.52;;;22.30;91.90;;;;;;10297524;28;20083;-67
2022/07/19 07:12:56;;;;;;;3.15;0.50;;;22.60;90.10;;;;;;10307287;28;20417;-67
2022/07/19 07:17:58;;;;;;;1.52;0.47;;;22.80;89.00;;;;;;10303814;28;20358;-66
2022/07/19 07:23:01;;;;;;;2.67;0.40;;;23.10;87.80;;;;;;10305386;28;20039;-66
2022/07/19 07:28:02;;;;;;;1.77;0.80;;;23.40;85.70;;;;;;10315417;28;20660;-66
2022/07/19 07:33:04;;;;;;;2.05;0.40;;;23.70;84.70;;;;;;10302183;28;20043;-65
2022/07/19 07:38:06;;;;;;;2.70;0.40;;;23.90;82.40;;;;;;10299991;28;20110;-63
2022/07/19 07:43:07;;;;;;;0.90;0.50;;;24.20;82.40;;;;;;10297797;28;20035;-66
2022/07/19 07:48:09;;;;;;;0.90;0.40;;;24.40;80.80;;;;;;10303630;28;20393;-65
2022/07/19 07:53:11;;;;;;;2.10;0.50;;;24.60;79.60;;;;;;10303128;28;20056;-65
2022/07/19 07:58:13;;;;;;;0.80;0.40;;;24.90;78.20;;;;;;10310987;28;20054;-65
2022/07/19 08:03:16;;;;;;;6.65;0.50;;;25.20;76.00;;;;;;10311786;28;20097;-65
2022/07/19 08:08:18;;;;;;;0.70;0.40;;;25.50;74.90;;;;;;10271238;28;20056;-65
2022/07/19 08:13:20;;;;;;;2.92;0.50;;;25.70;73.60;;;;;;10287982;28;20062;-65
2022/07/19 08:18:22;;;;;;;2.45;0.50;;;26.00;73.30;;;;;;10277515;28;20128;-66
2022/07/19 08:23:23;;;;;;;4.30;0.65;;;26.30;72.60;;;;;;10302137;28;22641;-64
2022/07/19 08:28:25;;;;;;;1.35;0.40;;;26.50;70.70;;;;;;10298823;28;20043;-65
2022/07/19 08:33:27;;;;;;;1.02;0.50;;;26.80;69.00;;;;;;10297914;28;20104;-63
2022/07/19 08:38:28;;;;;;;4.05;0.52;;;27.10;68.70;;;;;;10288801;28;20038;-63
2022/07/19 08:43:30;;;;;;;4.10;0.43;;;27.50;68.10;;;;;;10299626;28;20410;-63
2022/07/19 08:48:34;;;;;;;4.50;0.45;;;27.60;68.10;;;;;;10293880;28;20054;-63
2022/07/19 08:53:46;;;;;;;1.08;0.50;;;27.90;68.80;;;;;;10296853;28;20070;-63
2022/07/19 08:58:48;;;;;;;0.68;0.40;;;28.10;68.20;;;;;;10284460;28;20050;-62
2022/07/19 09:04:16;;;;;;;6.40;0.50;;;28.20;68.70;;;;;;10305454;28;20050;-61
2022/07/19 09:09:20;;;;;;;1.10;0.40;;;28.40;65.90;;;;;;10293360;28;20397;-62
2022/07/19 09:14:31;;;;;;;0.98;0.50;;;28.60;66.40;;;;;;10297697;28;20042;-62
2022/07/19 09:19:36;;;;;;;1.13;0.30;;;28.70;66.50;;;;;;10295803;28;20043;-62
2022/07/19 09:24:41;;;;;;;2.30;0.40;;;28.90;64.10;;;;;;10293171;28;20354;-61
2022/07/19 09:29:45;;;;;;;2.03;0.50;;;29.30;62.20;;;;;;10280668;28;20051;-62
2022/07/19 09:34:52;;;;;;;1.65;0.40;;;29.50;60.30;;;;;;10283718;28;20297;-62
2022/07/19 09:39:56;;;;;;;1.02;0.40;;;29.70;60.80;;;;;;10284935;28;20058;-61
2022/07/19 09:45:08;;;;;;;2.67;0.60;;;29.90;60.00;;;;;;10288479;28;20046;-62
2022/07/19 09:50:14;;;;;;;6.05;0.40;;;30.10;60.30;;;;;;10284143;28;20050;-62
2022/07/19 09:55:18;;;;;;;3.30;0.45;;;30.50;59.90;;;;;;10300995;28;20514;-62
2022/07/19 10:00:22;;;;;;;0.63;0.47;;;30.70;58.20;;;;;;10283074;28;20054;-61
2022/07/19 10:05:24;;;;;;;4.03;0.40;;;30.90;56.70;;;;;;10286350;28;20051;-61
2022/07/19 10:10:30;;;;;;;1.90;0.50;;;31.30;55.90;;;;;;10247836;28;20110;-61
2022/07/19 10:15:39;;;;;;;1.90;0.50;;;31.50;56.40;;;;;;10255696;28;20057;-61
2022/07/19 10:20:46;;;;;;;3.22;1.42;;;31.70;54.90;;;;;;10266037;28;20062;-61
2022/07/19 10:25:49;;;;;;;1.08;0.40;;;31.90;54.30;;;;;;10265462;28;20050;-61
2022/07/19 10:30:51;;;;;;;3.15;0.40;;;32.00;52.40;;;;;;10257618;28;20113;-61
2022/07/19 10:35:52;;;;;;;4.00;1.02;;;32.20;52.40;;;;;;10250230;28;20055;-60
2022/07/19 10:40:58;;;;;;;0.60;0.30;;;32.60;52.70;;;;;;10255888;28;20609;-61
2022/07/19 10:46:00;;;;;;;7.45;0.40;;;32.90;51.20;;;;;;10247963;28;20100;-62
2022/07/19 10:51:03;;;;;;;1.25;0.40;;;33.40;51.60;;;;;;10245546;28;20066;-62
2022/07/19 10:56:27;;;;;;;1.05;0.30;;;33.80;47.60;;;;;;10254653;28;20058;-61
2022/07/19 11:01:33;;;;;;;0.83;0.20;;;34.10;45.80;;;;;;10262147;28;20055;-61
2022/07/19 11:06:35;;;;;;;2.78;0.40;;;34.60;47.10;;;;;;10268285;28;20448;-61
2022/07/19 11:11:36;;;;;;;0.50;0.30;;;34.90;47.20;;;;;;10288282;28;20513;-61
2022/07/19 11:16:39;;;;;;;0.93;0.40;;;35.40;46.50;;;;;;10288397;28;20057;-61
2022/07/19 11:21:41;;;;;;;2.88;0.60;;;35.40;45.50;;;;;;10297628;28;20050;-61
2022/07/19 11:26:44;;;;;;;0.95;0.32;;;35.50;46.70;;;;;;10299692;28;20412;-62
2022/07/19 11:31:50;;;;;;;1.70;0.50;;;35.80;45.60;;;;;;10298759;28;20081;-61
2022/07/19 11:36:58;;;;;;;2.60;0.47;;;36.00;45.50;;;;;;10296815;28;20050;-61
2022/07/19 11:41:59;;;;;;;5.35;0.85;;;36.00;44.80;;;;;;10286568;28;20050;-61
2022/07/19 11:47:01;;;;;;;3.17;0.40;;;36.10;44.20;;;;;;10279575;28;20055;-61
2022/07/19 11:52:03;;;;;;;3.33;0.40;;;36.30;43.40;;;;;;10293650;28;20049;-62
2022/07/19 11:57:21;;;;;;;2.38;0.40;;;36.80;45.00;;;;;;10315773;28;20077;-62
2022/07/19 12:02:23;;;;;;;4.25;0.43;;;37.00;43.80;;;;;;10295633;28;20077;-61
2022/07/19 12:07:26;;;;;;;2.80;0.45;;;37.10;42.50;;;;;;10269704;28;20539;-61
2022/07/19 12:12:40;;;;;;;0.57;0.35;;;36.80;41.20;;;;;;10243771;28;20043;-62
2022/07/19 12:17:54;;;;;;;0.65;0.40;;;37.00;42.30;;;;;;10244634;28;20046;-61
2022/07/19 12:23:14;;;;;;;1.83;0.45;;;37.10;41.20;;;;;;10260250;28;20527;-60
2022/07/19 12:28:24;;;;;;;2.03;0.40;;;37.20;41.70;;;;;;10259336;28;20125;-60
2022/07/19 12:33:26;;;;;;;1.67;0.40;;;37.30;42.30;;;;;;10257947;28;20058;-61
2022/07/19 12:38:31;;;;;;;5.35;0.40;;;37.40;41.10;;;;;;10261396;28;20058;-61
2022/07/19 12:43:34;;;;;;;3.78;0.50;;;37.40;40.90;;;;;;10260962;28;20054;-61
2022/07/19 12:48:36;;;;;;;0.90;0.40;;;37.50;39.90;;;;;;10246980;28;20339;-62
2022/07/19 12:53:37;;;;;;;0.70;0.50;;;37.40;40.30;;;;;;10263891;28;20055;-62
2022/07/19 13:03:59;;;;;;;4.82;0.70;;;37.40;40.50;;;;;;10242715;28;20039;-61
2022/07/19 13:09:01;;;;;;;0.45;0.30;;;37.30;40.10;;;;;;10261731;28;20129;-62
2022/07/19 13:14:05;;;;;;;2.15;0.40;;;37.30;39.60;;;;;;10253755;28;20054;-62
2022/07/19 13:19:07;;;;;;;4.78;0.80;;;37.20;39.80;;;;;;10256195;28;20051;-62
2022/07/19 13:24:10;;;;;;;2.85;0.60;;;37.40;39.70;;;;;;10254849;28;20046;-61
2022/07/19 13:29:33;;;;;;;0.93;0.40;;;37.50;38.80;;;;;;10258679;28;20059;-61
2022/07/19 13:34:36;;;;;;;2.53;0.40;;;37.70;39.20;;;;;;10255381;28;20039;-61
2022/07/19 13:39:37;;;;;;;4.07;0.40;;;37.80;38.90;;;;;;10259758;28;20422;-61
2022/07/19 13:44:39;;;;;;;2.00;0.50;;;37.80;38.70;;;;;;10259920;28;20047;-61
2022/07/19 13:49:41;;;;;;;2.78;0.70;;;38.20;39.00;;;;;;10247078;28;20050;-62
2022/07/19 13:54:42;;;;;;;0.85;0.40;;;38.40;38.60;;;;;;10264486;28;20051;-61
2022/07/19 13:59:44;;;;;;;2.17;0.50;;;38.60;38.10;;;;;;10248971;28;20055;-62
2022/07/19 14:04:46;;;;;;;6.75;0.80;;;38.80;39.10;;;;;;10260612;28;20113;-62
2022/07/19 14:09:48;;;;;;;3.63;0.65;;;38.60;37.90;;;;;;10283349;28;20062;-62
2022/07/19 14:14:49;;;;;;;1.85;0.60;;;38.70;39.00;;;;;;10302262;28;20366;-62
2022/07/19 14:19:51;;;;;;;1.15;0.43;;;39.40;39.00;;;;;;10309352;28;20092;-61
2022/07/19 14:24:53;;;;;;;2.08;0.57;;;39.30;37.40;;;;;;10303084;28;20066;-61
2022/07/19 14:29:54;;;;;;;2.80;0.40;;;39.60;38.00;;;;;;10277786;28;20042;-62
2022/07/19 14:34:56;;;;;;;4.15;0.55;;;39.90;37.70;;;;;;10307359;28;20062;-62
2022/07/19 14:39:58;;;;;;;4.88;0.70;;;40.00;37.50;;;;;;10281809;28;20474;-62
2022/07/19 14:45:00;;;;;;;7.53;0.47;;;40.20;37.50;;;;;;10293756;28;20125;-62
2022/07/19 14:50:02;;;;;;;2.28;0.43;;;39.80;37.90;;;;;;10292032;28;20051;-61
2022/07/19 14:55:05;;;;;;;2.30;0.60;;;40.10;38.10;;;;;;10294881;28;20046;-61
2022/07/19 15:00:09;;;;;;;2.57;0.57;;;40.30;37.60;;;;;;10301534;28;20058;-61
2022/07/19 15:05:10;;;;;;;3.90;0.57;;;40.60;36.90;;;;;;10287732;28;20054;-65
2022/07/19 15:10:12;;;;;;;3.03;0.50;;;40.70;37.50;;;;;;10286765;28;20046;-64
2022/07/19 15:15:14;;;;;;;3.17;0.50;;;40.70;37.50;;;;;;10299299;28;20039;-64
2022/07/19 15:20:16;;;;;;;1.80;0.50;;;41.10;37.10;;;;;;10277243;28;20054;-64
2022/07/19 15:25:21;;;;;;;2.95;0.50;;;41.10;37.60;;;;;;10295476;28;20050;-65
2022/07/19 15:30:23;;;;;;;7.85;0.75;;;41.10;37.40;;;;;;10283668;28;20130;-64
2022/07/19 15:35:25;;;;;;;7.77;0.63;;;41.00;37.60;;;;;;10286167;28;20109;-64
2022/07/19 15:40:26;;;;;;;2.55;0.70;;;40.90;37.20;;;;;;10291825;28;20064;-65
2022/07/19 15:45:28;;;;;;;3.50;0.60;;;40.90;37.10;;;;;;10285468;28;20073;-65
2022/07/19 15:50:30;;;;;;;5.53;0.43;;;41.00;37.40;;;;;;10283389;28;20046;-64
2022/07/19 15:55:32;;;;;;;3.67;0.68;;;40.90;37.60;;;;;;10286522;28;20053;-64
2022/07/19 16:00:33;;;;;;;1.98;0.40;;;41.10;37.20;;;;;;10301812;28;20054;-65
2022/07/19 16:05:35;;;;;;;2.05;0.40;;;41.10;36.90;;;;;;10297076;28;20058;-63
2022/07/19 16:10:37;;;;;;;1.50;0.40;;;41.40;36.70;;;;;;10244699;28;20065;-63
2022/07/19 16:15:39;;;;;;;1.07;0.43;;;41.50;36.70;;;;;;10248153;28;20043;-64
2022/07/19 16:20:41;;;;;;;2.13;0.40;;;41.50;37.00;;;;;;10228329;28;20311;-64
2022/07/19 16:25:42;;;;;;;4.65;0.50;;;41.50;36.90;;;;;;10237559;28;20062;-65
2022/07/19 16:30:44;;;;;;;4.25;0.40;;;41.40;37.30;;;;;;10256539;28;20051;-64
2022/07/19 16:35:46;;;;;;;2.28;0.45;;;41.30;36.60;;;;;;10241937;28;20137;-65
2022/07/19 16:40:47;;;;;;;0.68;0.50;;;41.30;36.60;;;;;;10250056;28;20131;-64
2022/07/19 16:45:49;;;;;;;1.63;0.50;;;41.40;36.50;;;;;;10241639;28;20051;-64
2022/07/19 16:50:51;;;;;;;1.93;0.40;;;41.30;36.20;;;;;;10237310;28;20047;-65
2022/07/19 16:55:53;;;;;;;0.95;0.50;;;41.40;36.50;;;;;;10238357;28;20780;-65
2022/07/19 17:00:54;;;;;;;3.07;0.40;;;41.60;36.80;;;;;;10255517;28;20051;-65
2022/07/19 17:05:56;;;;;;;2.87;0.47;;;41.40;35.90;;;;;;10250386;28;20478;-65
2022/07/19 17:10:59;;;;;;;5.25;0.55;;;41.20;35.70;;;;;;10297453;28;20089;-65
2022/07/19 17:16:00;;;;;;;2.08;0.40;;;41.10;36.00;;;;;;10283868;28;20514;-65
2022/07/19 17:21:02;;;;;;;4.60;0.90;;;41.10;36.30;;;;;;10301450;28;20053;-65
2022/07/19 17:26:05;;;;;;;1.30;0.50;;;41.20;36.40;;;;;;10294320;28;20046;-62
2022/07/19 17:31:06;;;;;;;4.40;0.50;;;41.00;36.10;;;;;;10286137;28;20042;-61
2022/07/19 17:36:08;;;;;;;1.47;0.50;;;40.90;36.30;;;;;;10290124;28;20042;-61
2022/07/19 17:41:14;;;;;;;3.70;0.43;;;40.70;36.30;;;;;;10305498;28;20061;-62
2022/07/19 17:46:15;;;;;;;1.67;0.60;;;40.40;36.90;;;;;;10294778;28;20137;-62
2022/07/19 17:51:17;;;;;;;1.27;0.63;;;40.40;36.80;;;;;;10295461;28;20043;-61
2022/07/19 17:56:20;;;;;;;3.70;1.08;;;40.30;36.60;;;;;;10290504;28;20050;-61
2022/07/19 18:01:21;;;;;;;1.70;0.60;;;40.20;37.90;;;;;;10300944;28;20046;-61
2022/07/19 18:06:23;;;;;;;2.90;0.70;;;40.00;36.80;;;;;;10298436;28;20038;-61
2022/07/19 18:11:25;;;;;;;1.63;0.43;;;39.90;37.10;;;;;;10291920;28;20481;-62
2022/07/19 18:16:27;;;;;;;7.53;0.68;;;39.40;37.60;;;;;;10293213;28;20054;-62
2022/07/19 18:21:49;;;;;;;1.17;0.55;;;38.80;38.70;;;;;;10277634;28;20086;-61
2022/07/19 18:26:51;;;;;;;2.65;0.40;;;38.20;38.70;;;;;;10283817;28;20047;-61
2022/07/19 18:31:53;;;;;;;4.35;0.70;;;37.60;39.30;;;;;;10285192;28;20061;-61
2022/07/19 18:36:55;;;;;;;4.25;1.35;;;37.00;40.40;;;;;;10297417;28;20043;-60
2022/07/19 18:41:56;;;;;;;6.90;0.90;;;36.50;40.80;;;;;;10279757;28;20085;-61
2022/07/19 18:46:58;;;;;;;8.10;1.25;;;36.00;42.80;;;;;;10293335;28;20490;-62
2022/07/19 18:52:00;;;;;;;2.33;0.90;;;35.40;43.10;;;;;;10295922;28;20846;-61
2022/07/19 18:57:02;;;;;;;4.55;0.70;;;35.00;42.10;;;;;;10300403;28;20129;-62
2022/07/19 19:02:04;;;;;;;4.32;0.88;;;34.60;42.60;;;;;;10284329;28;20097;-62
2022/07/19 19:07:06;;;;;;;6.18;0.70;;;34.20;43.50;;;;;;10297152;28;20703;-61
2022/07/19 19:12:08;;;;;;;7.32;1.02;;;33.90;43.90;;;;;;10295943;28;20501;-62
2022/07/19 19:17:10;;;;;;;3.35;0.70;;;33.50;44.90;;;;;;10277378;28;20055;-60
2022/07/19 19:22:12;;;;;;;3.28;1.35;;;33.20;45.60;;;;;;10288451;28;20050;-61
2022/07/19 19:27:14;;;;;;;6.40;1.30;;;32.80;47.70;;;;;;10292546;28;20063;-61
2022/07/19 19:32:16;;;;;;;1.88;1.00;;;32.40;48.40;;;;;;10268608;28;20058;-61
2022/07/19 19:37:18;;;;;;;7.78;1.08;;;32.10;48.80;;;;;;10285351;28;20042;-62
2022/07/19 19:42:20;;;;;;;2.60;0.80;;;31.70;49.90;;;;;;10277899;28;20034;-62
2022/07/19 19:47:26;;;;;;;3.85;1.00;;;31.40;51.30;;;;;;10297141;28;20049;-62
2022/07/19 19:52:28;;;;;;;2.15;0.70;;;30.90;52.50;;;;;;10275956;28;20053;-60
2022/07/19 19:57:30;;;;;;;4.10;0.75;;;30.60;53.10;;;;;;10263132;28;20050;-59
2022/07/19 20:02:31;;;;;;;2.88;0.80;;;30.30;53.00;;;;;;10292781;28;20050;-60
2022/07/19 20:07:33;;;;;;;4.03;0.93;;;30.00;53.50;;;;;;10245441;28;1019865;-60
2022/07/19 20:12:35;;;;;;;4.82;1.00;;;29.70;54.60;;;;;;10304053;28;21526;-60
2022/07/19 20:17:37;;;;;;;4.45;0.70;;;29.40;55.00;;;;;;10284151;28;20043;-61
2022/07/19 20:22:39;;;;;;;4.63;0.98;;;29.10;55.50;;;;;;10275490;28;20116;-60
2022/07/19 20:27:41;;;;;;;5.13;0.95;;;28.80;54.90;;;;;;10285572;28;20039;-60
2022/07/19 20:32:48;;;;;;;12.68;1.25;;;28.60;55.80;;;;;;10286759;28;20046;-60
2022/07/19 20:37:50;;;;;;;6.25;1.15;;;28.40;56.90;;;;;;10278963;28;20054;-60
2022/07/19 20:42:52;;;;;;;7.50;1.50;;;28.10;56.90;;;;;;10291124;28;20054;-60
2022/07/19 20:47:54;;;;;;;9.23;1.58;;;27.90;57.20;;;;;;10273793;28;20507;-60
2022/07/19 20:52:55;;;;;;;12.73;1.30;;;27.60;57.40;;;;;;10281439;28;20063;-60
2022/07/19 20:57:58;;;;;;;11.70;1.17;;;27.40;58.30;;;;;;10288691;28;20058;-60
2022/07/19 21:03:00;;;;;;;10.60;1.20;;;27.10;59.00;;;;;;10306614;28;20116;-60
2022/07/19 21:08:02;;;;;;;12.43;1.27;;;27.00;59.80;;;;;;10300184;28;20049;-60
2022/07/19 21:13:04;;;;;;;9.85;1.15;;;26.70;60.10;;;;;;10302849;28;20042;-60
2022/07/19 21:18:06;;;;;;;10.32;1.50;;;26.60;60.70;;;;;;10278781;28;20047;-60
2022/07/19 21:23:08;;;;;;;8.95;1.48;;;26.40;61.00;;;;;;10294952;28;20486;-60
2022/07/19 21:28:09;;;;;;;8.20;1.85;;;26.20;61.50;;;;;;10286892;28;20046;-61
2022/07/19 21:33:11;;;;;;;11.10;1.00;;;26.10;62.10;;;;;;10302201;28;20401;-62
2022/07/19 21:38:13;;;;;;;5.53;2.20;;;25.90;62.80;;;;;;10296892;28;20054;-61
2022/07/19 21:43:15;;;;;;;3.33;0.90;;;25.80;63.10;;;;;;10301524;28;20054;-62
2022/07/19 21:48:17;;;;;;;4.63;1.30;;;25.60;63.20;;;;;;10308510;28;20042;-62
2022/07/19 21:53:18;;;;;;;9.85;1.52;;;25.50;63.80;;;;;;10292481;28;20104;-61
2022/07/19 21:58:20;;;;;;;7.00;1.20;;;25.40;64.50;;;;;;10294977;28;20105;-61
2022/07/19 22:03:21;;;;;;;3.72;1.17;;;25.30;64.50;;;;;;10293616;28;20507;-61
2022/07/19 22:08:27;;;;;;;7.45;1.08;;;25.20;64.80;;;;;;10291019;28;20050;-61
2022/07/19 22:13:28;;;;;;;5.57;1.63;;;25.00;64.80;;;;;;10284210;28;20046;-62
2022/07/19 22:18:30;;;;;;;7.65;0.85;;;24.90;65.20;;;;;;10294194;28;20117;-62
2022/07/19 22:23:32;;;;;;;2.92;1.00;;;24.80;65.40;;;;;;10287542;28;20540;-62
2022/07/19 22:28:33;;;;;;;8.80;1.60;;;24.60;67.00;;;;;;10296860;28;20058;-62
2022/07/19 22:33:38;;;;;;;3.47;1.20;;;24.50;68.10;;;;;;10291204;28;20066;-62
2022/07/19 22:38:39;;;;;;;4.18;1.35;;;24.40;69.60;;;;;;10295067;28;20496;-62
2022/07/19 22:43:41;;;;;;;1.45;0.90;;;24.30;68.90;;;;;;10300660;28;20533;-62
2022/07/19 22:48:43;;;;;;;8.13;1.20;;;24.20;69.10;;;;;;10301713;28;20533;-62
2022/07/19 22:53:45;;;;;;;1.58;0.80;;;24.00;69.90;;;;;;10297372;28;20569;-62
2022/07/19 22:58:46;;;;;;;3.90;0.80;;;23.80;70.90;;;;;;10286146;28;20057;-62
2022/07/19 23:03:48;;;;;;;7.53;1.30;;;23.60;71.50;;;;;;10280198;28;20047;-62
2022/07/19 23:08:50;;;;;;;3.42;0.90;;;23.60;72.30;;;;;;10294702;28;20046;-63
2022/07/19 23:13:53;;;;;;;3.60;1.02;;;23.50;73.30;;;;;;10294958;28;20420;-62
2022/07/19 23:18:54;;;;;;;5.28;0.85;;;23.40;73.20;;;;;;10306143;28;20516;-62
2022/07/19 23:23:56;;;;;;;3.60;0.90;;;23.30;73.40;;;;;;10295915;28;20042;-62
2022/07/19 23:28:58;;;;;;;6.15;1.00;;;23.10;73.50;;;;;;10292409;28;20053;-62
2022/07/19 23:34:00;;;;;;;2.65;0.95;;;23.00;74.00;;;;;;10310328;28;20042;-62
2022/07/19 23:39:02;;;;;;;2.90;1.00;;;23.00;74.20;;;;;;10279680;28;20520;-61
2022/07/19 23:44:04;;;;;;;1.45;0.65;;;22.90;74.40;;;;;;10304598;28;20505;-62
2022/07/19 23:49:06;;;;;;;10.20;1.58;;;22.80;74.30;;;;;;10296376;28;20047;-62
2022/07/19 23:54:08;;;;;;;3.13;1.20;;;22.80;75.90;;;;;;10291078;28;20137;-62
2022/07/19 23:59:10;;;;;;;2.65;1.00;;;22.70;77.30;;;;;;10291442;28;20609;-62
